Time;durP1;ratioP1;P1;durP2;ratioP2;P2;SDS_P1;SDS_P2;PMS_P1;PMS_P2;Temp;Humidity;BMP_temperature;BMP_pressure;BME280_temperature;BME280_humidity;BME280_pressure;Samples;Min_cycle;Max_cycle;Signal;HPM_P1;HPM_P2
2022/04/14 00:02:07;;;;;;;46.27;28.10;;;10.90;99.90;;;;;;5116252;27;20183;-66
2022/04/14 00:04:36;;;;;;;40.60;26.43;;;10.90;99.90;;;;;;5091896;28;20467;-66
2022/04/14 00:07:05;;;;;;;41.07;26.30;;;10.80;99.90;;;;;;5098443;28;20198;-65
2022/04/14 00:09:35;;;;;;;43.53;27.47;;;10.80;99.90;;;;;;5096614;28;20199;-66
2022/04/14 00:12:04;;;;;;;44.37;27.67;;;10.80;99.90;;;;;;5127201;27;20228;-66
2022/04/14 00:14:34;;;;;;;51.23;29.30;;;10.80;99.90;;;;;;5127076;27;20230;-66
2022/04/14 00:17:02;;;;;;;45.87;28.83;;;10.80;99.90;;;;;;5101992;28;20207;-66
2022/04/14 00:19:31;;;;;;;52.40;29.50;;;10.70;99.90;;;;;;5123301;27;20187;-66
2022/04/14 00:21:59;;;;;;;48.63;29.07;;;10.80;99.90;;;;;;5096821;28;20198;-66
2022/04/14 00:24:28;;;;;;;49.40;29.03;;;10.80;99.90;;;;;;5100331;28;20297;-66
2022/04/14 00:26:56;;;;;;;45.53;28.93;;;10.80;99.90;;;;;;5092080;28;20190;-66
2022/04/14 00:29:25;;;;;;;52.63;31.00;;;10.80;99.90;;;;;;5099036;28;20198;-66
2022/04/14 00:31:55;;;;;;;61.63;34.10;;;10.80;99.90;;;;;;5121060;27;20187;-66
2022/04/14 00:34:23;;;;;;;49.87;30.20;;;10.80;99.90;;;;;;5100115;28;20456;-66
2022/04/14 00:36:52;;;;;;;57.00;32.47;;;10.90;99.90;;;;;;5096230;28;20592;-66
2022/04/14 00:39:20;;;;;;;52.50;31.00;;;10.90;99.90;;;;;;5107026;28;20249;-66
2022/04/14 00:41:49;;;;;;;52.10;31.37;;;10.90;99.90;;;;;;5094571;28;20203;-66
2022/04/14 00:44:17;;;;;;;54.30;31.13;;;10.90;99.90;;;;;;5100805;28;20301;-66
2022/04/14 00:46:45;;;;;;;51.77;30.37;;;10.80;99.90;;;;;;5099923;28;20190;-66
2022/04/14 00:49:15;;;;;;;52.27;31.13;;;10.80;99.90;;;;;;5095307;28;20199;-66
2022/04/14 00:51:44;;;;;;;53.50;31.73;;;10.70;99.90;;;;;;5092923;28;20206;-66
2022/04/14 00:54:12;;;;;;;55.30;29.90;;;10.70;99.90;;;;;;5098500;28;20195;-66
2022/04/14 00:56:41;;;;;;;49.10;29.73;;;10.70;99.90;;;;;;5099228;28;20674;-66
2022/04/14 00:59:09;;;;;;;50.77;28.90;;;10.60;99.90;;;;;;5105531;28;20200;-66
2022/04/14 01:01:38;;;;;;;47.57;29.27;;;10.60;99.90;;;;;;5100700;28;20195;-66
2022/04/14 01:04:07;;;;;;;47.40;27.93;;;10.60;99.90;;;;;;5104905;28;20240;-66
2022/04/14 01:06:39;;;;;;;53.47;28.60;;;10.50;99.90;;;;;;5098034;28;20241;-66
2022/04/14 01:09:20;;;;;;;47.63;28.57;;;10.50;99.90;;;;;;5093306;28;20198;-66
2022/04/14 01:11:51;;;;;;;38.13;25.30;;;10.40;99.90;;;;;;5094618;28;20237;-66
2022/04/14 01:14:21;;;;;;;47.67;27.53;;;10.30;99.90;;;;;;5095808;28;20712;-66
2022/04/14 01:16:49;;;;;;;40.47;25.93;;;10.30;99.90;;;;;;5097728;28;20199;-66
2022/04/14 01:19:18;;;;;;;43.33;25.97;;;10.20;99.90;;;;;;5096312;28;20207;-66
2022/04/14 01:21:58;;;;;;;46.30;27.90;;;10.20;99.90;;;;;;5095922;28;20466;-66
2022/04/14 01:24:27;;;;;;;44.53;27.83;;;10.20;99.90;;;;;;5096663;28;20207;-67
2022/04/14 01:26:57;;;;;;;47.60;26.73;;;10.10;99.90;;;;;;5099578;27;20192;-66
2022/04/14 01:29:26;;;;;;;47.03;27.70;;;10.10;99.90;;;;;;5104018;27;20287;-66
2022/04/14 01:31:56;;;;;;;52.00;31.97;;;10.00;99.90;;;;;;5096905;28;20226;-67
2022/04/14 01:34:26;;;;;;;51.97;29.87;;;10.00;99.90;;;;;;5107739;27;20199;-66
2022/04/14 01:36:54;;;;;;;58.53;31.87;;;10.00;99.90;;;;;;5098175;28;20207;-66
2022/04/14 01:39:22;;;;;;;56.70;30.93;;;10.10;99.90;;;;;;5118714;27;20203;-66
2022/04/14 01:41:53;;;;;;;47.50;29.10;;;10.00;99.90;;;;;;5100912;28;20299;-66
2022/04/14 01:44:21;;;;;;;50.03;27.97;;;10.00;99.90;;;;;;5101841;27;20202;-66
2022/04/14 01:46:49;;;;;;;46.00;27.63;;;10.00;99.90;;;;;;5116559;27;20971;-67
2022/04/14 01:49:18;;;;;;;50.50;29.43;;;10.00;99.90;;;;;;5124547;27;20194;-66
2022/04/14 01:51:48;;;;;;;51.63;29.10;;;10.00;99.90;;;;;;5096326;28;20191;-67
2022/04/14 01:54:16;;;;;;;52.33;30.60;;;9.90;99.90;;;;;;5099542;27;20199;-66
2022/04/14 01:56:46;;;;;;;47.83;28.83;;;9.90;99.90;;;;;;5126975;27;20222;-66
2022/04/14 01:59:15;;;;;;;54.10;30.17;;;9.90;99.90;;;;;;5134640;27;20202;-66
2022/04/14 02:01:44;;;;;;;59.40;32.33;;;9.80;99.90;;;;;;5108203;27;20663;-66
2022/04/14 02:04:13;;;;;;;58.93;30.30;;;9.80;99.90;;;;;;5098711;27;20263;-66
2022/04/14 02:06:44;;;;;;;53.13;30.70;;;9.80;99.90;;;;;;5104942;28;20207;-66
2022/04/14 02:09:13;;;;;;;62.37;32.53;;;9.70;99.90;;;;;;5099797;28;20191;-66
2022/04/14 02:11:42;;;;;;;53.47;30.73;;;9.70;99.90;;;;;;5137250;27;20199;-66
2022/04/14 02:14:10;;;;;;;53.23;30.53;;;9.70;99.90;;;;;;5101790;28;20234;-66
2022/04/14 02:16:40;;;;;;;59.07;31.90;;;9.80;99.90;;;;;;5125017;27;20195;-66
2022/04/14 02:19:08;;;;;;;58.93;31.87;;;9.70;99.90;;;;;;5099325;27;20514;-66
2022/04/14 02:21:39;;;;;;;53.87;32.07;;;9.70;99.90;;;;;;5100667;28;20282;-66
2022/04/14 02:24:07;;;;;;;54.67;31.60;;;9.70;99.90;;;;;;5099885;27;20194;-67
2022/04/14 02:26:36;;;;;;;53.07;31.50;;;9.70;99.90;;;;;;5105827;28;20207;-66
2022/04/14 02:29:04;;;;;;;57.17;32.67;;;9.60;99.90;;;;;;5099399;28;20203;-66
2022/04/14 02:31:33;;;;;;;62.27;31.90;;;9.60;99.90;;;;;;5099807;28;20251;-66
2022/04/14 02:34:03;;;;;;;63.50;33.60;;;9.60;99.90;;;;;;5095469;27;20191;-66
2022/04/14 02:36:32;;;;;;;67.93;33.33;;;9.50;99.90;;;;;;5101699;27;20191;-66
2022/04/14 02:39:00;;;;;;;66.80;33.80;;;9.50;99.90;;;;;;5095618;28;20389;-66
2022/04/14 02:41:29;;;;;;;65.03;33.43;;;9.40;99.90;;;;;;5097035;28;20193;-66
2022/04/14 02:43:57;;;;;;;56.37;30.37;;;9.40;99.90;;;;;;5102441;27;20186;-66
2022/04/14 02:46:26;;;;;;;58.63;31.70;;;9.30;99.90;;;;;;5098615;28;20218;-66
2022/04/14 02:48:55;;;;;;;60.70;31.53;;;9.20;99.90;;;;;;5095597;28;20199;-66
2022/04/14 02:51:24;;;;;;;49.43;29.60;;;9.20;99.90;;;;;;5098759;28;20239;-68
2022/04/14 02:53:55;;;;;;;51.83;29.63;;;9.10;99.90;;;;;;5099175;27;20206;-68
2022/04/14 02:56:24;;;;;;;56.80;30.57;;;9.10;99.90;;;;;;5097024;28;20199;-68
2022/04/14 02:58:52;;;;;;;52.57;30.07;;;9.00;99.90;;;;;;5098661;28;20206;-68
2022/04/14 03:01:21;;;;;;;65.40;34.03;;;8.90;99.90;;;;;;5097608;27;20197;-68
2022/04/14 03:03:50;;;;;;;67.40;33.97;;;8.90;99.90;;;;;;5127035;27;20192;-68
2022/04/14 03:06:18;;;;;;;67.97;35.43;;;8.90;99.90;;;;;;5095268;28;20223;-68
2022/04/14 03:08:48;;;;;;;64.93;33.57;;;8.90;99.90;;;;;;5097873;28;20191;-68
2022/04/14 03:11:16;;;;;;;69.83;35.47;;;8.90;99.90;;;;;;5101187;27;20347;-68
2022/04/14 03:13:48;;;;;;;67.03;34.50;;;8.90;99.90;;;;;;5102694;28;20198;-68
2022/04/14 03:16:16;;;;;;;74.27;36.13;;;8.90;99.90;;;;;;5097068;28;20246;-68
2022/04/14 03:18:45;;;;;;;68.23;34.40;;;8.90;99.90;;;;;;5095996;28;20192;-68
2022/04/14 03:21:13;;;;;;;65.27;33.10;;;8.80;99.90;;;;;;5129174;27;20184;-68
2022/04/14 03:23:42;;;;;;;66.67;33.40;;;8.80;99.90;;;;;;5106137;27;20542;-68
2022/04/14 03:26:12;;;;;;;63.13;32.10;;;8.70;99.90;;;;;;5102986;27;20629;-68
2022/04/14 03:28:40;;;;;;;60.43;31.70;;;8.70;99.90;;;;;;5093736;28;20282;-68
2022/04/14 03:31:10;;;;;;;60.07;31.03;;;8.70;99.90;;;;;;5100563;28;20234;-68
2022/04/14 03:33:38;;;;;;;52.83;28.40;;;8.60;99.90;;;;;;5098762;28;20184;-68
2022/04/14 03:36:07;;;;;;;58.53;31.67;;;8.50;99.90;;;;;;5098268;28;20562;-67
2022/04/14 03:38:36;;;;;;;54.57;29.50;;;8.40;99.90;;;;;;5100566;28;20566;-68
2022/04/14 03:41:06;;;;;;;58.20;30.97;;;8.30;99.90;;;;;;5123676;27;20703;-68
2022/04/14 03:43:36;;;;;;;62.43;32.23;;;8.30;99.90;;;;;;5105193;27;20267;-68
2022/04/14 03:46:05;;;;;;;65.13;33.20;;;8.40;99.90;;;;;;5098520;28;20218;-68
2022/04/14 03:48:34;;;;;;;62.10;32.53;;;8.40;99.90;;;;;;5094637;28;20555;-68
2022/04/14 03:51:02;;;;;;;67.50;32.87;;;8.40;99.90;;;;;;5104652;28;20292;-68
2022/04/14 03:53:31;;;;;;;67.63;32.93;;;8.30;99.90;;;;;;5103376;28;20660;-68
2022/04/14 03:55:59;;;;;;;67.67;34.63;;;8.30;99.90;;;;;;5100321;28;20183;-68
2022/04/14 03:58:28;;;;;;;64.53;33.57;;;8.30;99.90;;;;;;5097983;28;20624;-68
2022/04/14 04:00:58;;;;;;;66.93;34.10;;;8.30;99.90;;;;;;5101388;28;20679;-68
2022/04/14 04:03:26;;;;;;;63.03;31.67;;;8.20;99.90;;;;;;5099116;28;20194;-68
2022/04/14 04:05:54;;;;;;;53.30;29.27;;;8.20;99.90;;;;;;5097497;28;20211;-68
2022/04/14 04:08:23;;;;;;;51.60;27.47;;;8.10;99.90;;;;;;5096832;27;20276;-68
2022/04/14 04:10:51;;;;;;;52.43;28.30;;;8.10;99.90;;;;;;5100857;28;20193;-68
2022/04/14 04:13:22;;;;;;;51.17;27.87;;;8.00;99.90;;;;;;5096999;28;20195;-68
2022/04/14 04:15:51;;;;;;;48.03;26.37;;;8.00;99.90;;;;;;5098342;28;20235;-68
2022/04/14 04:18:23;;;;;;;54.47;28.17;;;7.90;99.90;;;;;;5109063;27;20600;-68
2022/04/14 04:20:51;;;;;;;52.07;27.57;;;7.80;99.90;;;;;;5135311;27;20190;-68
2022/04/14 04:23:19;;;;;;;60.63;28.73;;;7.80;99.90;;;;;;5100854;27;20547;-68
2022/04/14 04:25:48;;;;;;;52.53;28.77;;;7.70;99.90;;;;;;5104452;28;20665;-67
2022/04/14 04:28:16;;;;;;;50.67;27.80;;;7.70;99.90;;;;;;5098144;28;20863;-68
2022/04/14 04:30:45;;;;;;;53.10;28.07;;;7.80;99.90;;;;;;5097666;28;20562;-68
2022/04/14 04:33:13;;;;;;;53.93;28.73;;;7.70;99.90;;;;;;5100749;28;20187;-67
2022/04/14 04:35:42;;;;;;;49.37;28.13;;;7.70;99.90;;;;;;5095134;28;20202;-68
2022/04/14 04:38:11;;;;;;;51.63;27.53;;;7.70;99.90;;;;;;5104025;28;20197;-68
2022/04/14 04:40:39;;;;;;;53.70;28.53;;;7.60;99.90;;;;;;5090663;28;20727;-68
2022/04/14 04:43:08;;;;;;;46.70;26.03;;;7.70;99.90;;;;;;5100662;28;20635;-68
2022/04/14 04:45:37;;;;;;;41.13;24.50;;;7.60;99.90;;;;;;5099495;27;20669;-68
2022/04/14 04:48:06;;;;;;;42.67;24.83;;;7.50;99.90;;;;;;5101132;28;20538;-68
2022/04/14 04:50:34;;;;;;;44.10;24.77;;;7.50;99.90;;;;;;5099548;28;20673;-68
2022/04/14 04:53:05;;;;;;;46.17;23.90;;;7.40;99.90;;;;;;5095882;28;20274;-68
2022/04/14 04:55:33;;;;;;;39.50;22.90;;;7.40;99.90;;;;;;5102449;28;20202;-68
2022/04/14 04:58:02;;;;;;;42.47;23.37;;;7.30;99.90;;;;;;5106030;28;20687;-68
2022/04/14 05:00:30;;;;;;;42.17;24.10;;;7.30;99.90;;;;;;5103282;28;20280;-68
2022/04/14 05:02:59;;;;;;;43.90;23.80;;;7.20;99.90;;;;;;5094916;27;20670;-68
2022/04/14 05:05:28;;;;;;;42.97;22.93;;;7.20;99.90;;;;;;5106430;28;20677;-68
2022/04/14 05:07:56;;;;;;;41.27;22.70;;;7.20;99.90;;;;;;5105234;28;20570;-68
2022/04/14 05:10:26;;;;;;;40.17;23.80;;;7.10;99.90;;;;;;5104371;28;20203;-68
2022/04/14 05:12:54;;;;;;;43.07;24.53;;;7.10;99.90;;;;;;5096389;28;20421;-68
2022/04/14 05:15:23;;;;;;;45.37;24.30;;;7.10;99.90;;;;;;5097886;28;20711;-68
2022/04/14 05:17:51;;;;;;;50.00;26.37;;;7.20;99.90;;;;;;5103854;28;20273;-68
2022/04/14 05:20:20;;;;;;;55.23;26.57;;;7.20;99.90;;;;;;5108014;28;20654;-68
2022/04/14 05:22:48;;;;;;;49.13;27.50;;;7.30;99.90;;;;;;5100900;28;20207;-68
2022/04/14 05:25:17;;;;;;;44.10;26.33;;;7.30;99.90;;;;;;5098115;28;20199;-68
2022/04/14 05:27:46;;;;;;;45.77;26.43;;;7.40;99.90;;;;;;5106736;28;20704;-68
2022/04/14 05:30:15;;;;;;;49.07;27.57;;;7.40;99.90;;;;;;5109710;28;20206;-68
2022/04/14 05:32:44;;;;;;;52.83;27.87;;;7.40;99.90;;;;;;5104274;28;20191;-68
2022/04/14 05:35:12;;;;;;;49.07;27.87;;;7.40;99.90;;;;;;5100590;28;20282;-67
2022/04/14 05:37:40;;;;;;;56.63;28.93;;;7.50;99.90;;;;;;5108378;27;20275;-68
2022/04/14 05:40:09;;;;;;;56.63;30.07;;;7.60;99.90;;;;;;5100715;28;20256;-68
2022/04/14 05:42:38;;;;;;;51.97;30.30;;;7.70;99.90;;;;;;5099239;28;20195;-68
2022/04/14 05:45:09;;;;;;;58.10;29.70;;;7.90;99.90;;;;;;5104152;27;20195;-68
2022/04/14 05:47:39;;;;;;;53.07;29.87;;;8.10;99.90;;;;;;5101400;27;20205;-68
2022/04/14 05:50:08;;;;;;;54.97;30.57;;;8.40;99.90;;;;;;5102255;27;20679;-68
2022/04/14 05:52:36;;;;;;;49.23;28.23;;;8.60;99.90;;;;;;5103087;28;20203;-67
2022/04/14 05:55:05;;;;;;;45.83;28.30;;;8.90;99.90;;;;;;5106022;28;20218;-68
2022/04/14 05:57:33;;;;;;;41.87;27.70;;;9.10;99.90;;;;;;5092316;28;20223;-67
2022/04/14 06:00:02;;;;;;;37.30;24.20;;;9.40;99.90;;;;;;5100198;28;20282;-67
2022/04/14 06:02:31;;;;;;;29.37;22.40;;;9.60;99.90;;;;;;5103214;27;20203;-67
2022/04/14 06:05:00;;;;;;;24.77;19.60;;;10.00;99.90;;;;;;5097764;28;20183;-67
2022/04/14 06:07:28;;;;;;;25.17;19.30;;;10.30;99.90;;;;;;5105274;28;20202;-67
2022/04/14 06:09:57;;;;;;;23.20;18.30;;;10.50;99.90;;;;;;5110463;27;20252;-67
2022/04/14 06:12:26;;;;;;;22.83;18.17;;;10.60;99.90;;;;;;5095167;28;20191;-67
2022/04/14 06:14:54;;;;;;;22.87;18.73;;;10.40;99.90;;;;;;5102279;28;20249;-67
2022/04/14 06:17:23;;;;;;;24.47;17.80;;;10.50;99.90;;;;;;5104581;28;20263;-67
2022/04/14 06:19:55;;;;;;;23.63;17.80;;;10.90;99.90;;;;;;5106530;28;20221;-67
2022/04/14 06:22:23;;;;;;;20.13;16.30;;;11.40;99.90;;;;;;5114142;27;20397;-67
2022/04/14 06:24:52;;;;;;;19.30;15.93;;;11.80;99.90;;;;;;5101731;28;20448;-67
2022/04/14 06:27:20;;;;;;;18.30;15.87;;;12.40;99.90;;;;;;5104458;27;20218;-67
2022/04/14 06:29:48;;;;;;;24.17;15.70;;;12.80;99.90;;;;;;5104426;28;20213;-67
2022/04/14 06:32:17;;;;;;;19.40;15.60;;;13.20;99.90;;;;;;5101029;27;20197;-67
2022/04/14 06:34:47;;;;;;;17.50;15.60;;;13.60;99.90;;;;;;5099766;28;20203;-66
2022/04/14 06:37:17;;;;;;;21.97;14.53;;;13.90;99.90;;;;;;5099410;27;20211;-67
2022/04/14 06:39:45;;;;;;;21.37;14.33;;;14.20;99.90;;;;;;5105534;28;20203;-67
2022/04/14 06:42:14;;;;;;;15.63;13.17;;;14.50;99.90;;;;;;5100640;28;20195;-67
2022/04/14 06:44:42;;;;;;;18.93;12.97;;;14.70;99.90;;;;;;5105021;28;20601;-67
2022/04/14 06:47:11;;;;;;;20.77;13.33;;;14.90;99.90;;;;;;5102434;28;20327;-67
2022/04/14 06:49:39;;;;;;;20.50;12.20;;;15.30;99.90;;;;;;5105098;27;20235;-67
2022/04/14 06:52:08;;;;;;;22.07;12.90;;;15.40;99.90;;;;;;5098443;28;20191;-67
2022/04/14 06:54:37;;;;;;;17.47;10.30;;;15.80;99.90;;;;;;5106227;27;20286;-67
2022/04/14 06:57:06;;;;;;;16.53;10.87;;;16.00;99.90;;;;;;5093069;27;20200;-67
2022/04/14 06:59:34;;;;;;;24.33;12.40;;;16.30;99.90;;;;;;5095353;28;20207;-67
2022/04/14 07:02:03;;;;;;;25.07;13.77;;;16.60;99.90;;;;;;5100789;28;20194;-67
2022/04/14 07:04:31;;;;;;;20.93;10.77;;;16.70;99.90;;;;;;5098288;27;20199;-67
2022/04/14 07:07:00;;;;;;;21.13;11.57;;;17.00;99.90;;;;;;5100082;28;20198;-67
2022/04/14 07:09:32;;;;;;;17.43;10.80;;;17.20;99.90;;;;;;5090839;28;20327;-67
2022/04/14 07:12:02;;;;;;;20.33;11.73;;;17.50;99.90;;;;;;5099041;28;20199;-67
2022/04/14 07:14:31;;;;;;;19.13;9.43;;;17.80;99.90;;;;;;5096431;28;20381;-67
2022/04/14 07:17:00;;;;;;;15.67;9.63;;;18.00;99.90;;;;;;5126630;27;20287;-67
2022/04/14 07:19:29;;;;;;;13.60;9.47;;;18.20;99.90;;;;;;5099803;27;20297;-67
2022/04/14 07:21:57;;;;;;;17.37;9.03;;;18.40;99.90;;;;;;5099472;28;20279;-67
2022/04/14 07:24:25;;;;;;;17.63;10.20;;;18.50;99.90;;;;;;5102945;28;20207;-67
2022/04/14 07:26:54;;;;;;;16.90;11.07;;;18.70;99.90;;;;;;5099584;27;20190;-66
2022/04/14 07:29:24;;;;;;;19.30;11.83;;;18.80;99.90;;;;;;5103912;28;20240;-67
2022/04/14 07:31:52;;;;;;;15.30;10.40;;;19.00;99.90;;;;;;5093199;27;20197;-67
2022/04/14 07:34:21;;;;;;;13.23;8.97;;;19.30;99.90;;;;;;5092990;27;20196;-67
2022/04/14 07:36:49;;;;;;;16.63;9.30;;;19.40;99.90;;;;;;5125905;27;20276;-67
2022/04/14 07:39:18;;;;;;;12.20;8.40;;;19.50;99.90;;;;;;5097346;28;20216;-67
2022/04/14 07:41:46;;;;;;;19.30;9.07;;;19.80;99.90;;;;;;5098304;27;20192;-67
2022/04/14 07:44:15;;;;;;;16.37;8.50;;;19.80;99.90;;;;;;5100764;28;20238;-67
2022/04/14 07:46:45;;;;;;;16.80;8.67;;;19.80;99.90;;;;;;5093241;28;20288;-67
2022/04/14 07:49:13;;;;;;;14.13;8.00;;;19.90;99.90;;;;;;5100257;28;20196;-67
2022/04/14 07:51:42;;;;;;;12.83;8.43;;;20.00;99.90;;;;;;5101503;28;20200;-67
2022/04/14 07:54:10;;;;;;;10.60;7.30;;;20.00;99.90;;;;;;5093726;28;20608;-67
2022/04/14 07:56:39;;;;;;;11.50;7.60;;;20.20;99.90;;;;;;5089975;28;20221;-67
2022/04/14 07:59:07;;;;;;;11.60;7.00;;;20.40;99.90;;;;;;5094375;27;20226;-67
2022/04/14 08:01:35;;;;;;;14.27;8.07;;;20.90;99.90;;;;;;5094501;27;20199;-66
2022/04/14 08:04:06;;;;;;;12.30;6.87;;;21.30;99.90;;;;;;5104830;27;20199;-67
2022/04/14 08:06:34;;;;;;;11.50;6.77;;;21.50;99.90;;;;;;5102286;27;20278;-67
2022/04/14 08:09:04;;;;;;;12.10;7.13;;;21.60;99.90;;;;;;5094310;28;20219;-67
2022/04/14 08:11:33;;;;;;;9.30;7.00;;;21.70;99.90;;;;;;5128665;27;20201;-67
2022/04/14 08:14:01;;;;;;;11.33;6.67;;;22.10;99.90;;;;;;5094517;28;20235;-67
2022/04/14 08:16:30;;;;;;;14.38;7.38;;;22.60;99.90;;;;;;5114359;27;20292;-67
2022/04/14 08:18:58;;;;;;;11.00;6.78;;;22.90;99.90;;;;;;5096821;28;20278;-67
2022/04/14 08:21:28;;;;;;;11.10;6.60;;;22.80;99.90;;;;;;5103766;27;20185;-67
2022/04/14 08:23:57;;;;;;;10.85;6.50;;;22.90;99.90;;;;;;5100176;28;20196;-67
2022/04/14 08:26:27;;;;;;;13.27;7.07;;;23.40;99.90;;;;;;5097776;27;20234;-67
2022/04/14 08:28:56;;;;;;;9.35;5.53;;;23.70;99.90;;;;;;5094050;28;20233;-67
2022/04/14 08:31:28;;;;;;;9.90;5.95;;;23.80;99.90;;;;;;5094080;28;20189;-67
2022/04/14 08:33:57;;;;;;;7.30;5.22;;;23.80;99.90;;;;;;5090818;28;20663;-67
2022/04/14 08:36:27;;;;;;;8.57;5.40;;;23.90;99.90;;;;;;5100476;28;20203;-67
2022/04/14 08:38:57;;;;;;;7.20;5.18;;;23.70;99.90;;;;;;5097204;28;20284;-67
2022/04/14 08:41:31;;;;;;;11.60;6.03;;;24.00;99.90;;;;;;5095029;28;20202;-67
2022/04/14 08:44:01;;;;;;;8.10;5.30;;;24.40;99.90;;;;;;5093769;28;20210;-67
2022/04/14 08:46:30;;;;;;;10.18;5.78;;;24.90;99.90;;;;;;5101631;28;20222;-67
2022/04/14 08:49:00;;;;;;;12.18;6.13;;;25.20;99.90;;;;;;5098522;28;20261;-67
2022/04/14 08:51:33;;;;;;;7.25;5.25;;;25.30;99.90;;;;;;5097716;28;20274;-67
2022/04/14 08:54:03;;;;;;;6.45;5.13;;;25.30;99.90;;;;;;5089092;28;20192;-67
2022/04/14 08:56:32;;;;;;;8.70;5.43;;;25.40;99.90;;;;;;5094226;28;20278;-67
2022/04/14 08:59:02;;;;;;;7.95;5.57;;;25.40;99.90;;;;;;5091901;28;20738;-66
2022/04/14 09:01:32;;;;;;;9.13;5.10;;;25.20;99.90;;;;;;5098272;28;20199;-67
2022/04/14 09:04:01;;;;;;;7.15;4.50;;;25.30;99.90;;;;;;5097263;28;20227;-67
2022/04/14 09:06:32;;;;;;;8.85;4.80;;;25.50;99.90;;;;;;5092457;28;20207;-67
2022/04/14 09:09:01;;;;;;;7.95;5.18;;;25.50;99.90;;;;;;5094790;28;20215;-67
2022/04/14 09:11:31;;;;;;;8.38;5.32;;;25.50;99.90;;;;;;5087282;28;20195;-67
2022/04/14 09:14:01;;;;;;;10.23;5.10;;;25.40;99.90;;;;;;5095675;28;20351;-67
2022/04/14 09:16:33;;;;;;;8.07;5.20;;;25.20;99.90;;;;;;5096252;28;20643;-67
2022/04/14 09:19:03;;;;;;;7.97;4.88;;;25.50;99.90;;;;;;5126075;27;20191;-67
2022/04/14 09:21:32;;;;;;;8.32;4.72;;;25.60;99.90;;;;;;5099406;28;20191;-66
2022/04/14 09:24:01;;;;;;;8.52;5.10;;;25.50;99.90;;;;;;5100428;27;20197;-66
2022/04/14 09:26:30;;;;;;;9.45;5.32;;;25.70;99.90;;;;;;5092013;28;20449;-67
2022/04/14 09:29:04;;;;;;;5.38;4.53;;;25.70;99.90;;;;;;5096821;28;20215;-68
2022/04/14 09:31:47;;;;;;;7.10;4.55;;;25.90;99.90;;;;;;5098586;28;20278;-69
2022/04/14 09:34:18;;;;;;;8.55;5.63;;;26.30;99.90;;;;;;5093017;28;20205;-69
2022/04/14 09:37:05;;;;;;;7.45;5.05;;;25.80;99.90;;;;;;5117927;28;20192;-69
2022/04/14 09:39:50;;;;;;;9.75;4.70;;;26.20;99.90;;;;;;5095341;28;20219;-69
2022/04/14 09:42:21;;;;;;;7.78;4.75;;;26.10;99.90;;;;;;5099574;27;20226;-69
2022/04/14 09:44:51;;;;;;;8.85;4.57;;;25.90;99.90;;;;;;5100585;27;20203;-68
2022/04/14 09:47:38;;;;;;;6.50;4.43;;;25.90;99.90;;;;;;5103501;27;20207;-68
2022/04/14 09:50:22;;;;;;;8.38;4.35;;;26.20;99.90;;;;;;5094198;27;20788;-68
2022/04/14 09:53:01;;;;;;;8.38;4.35;;;26.40;99.90;;;;;;5094446;27;20211;-68
2022/04/14 09:55:31;;;;;;;4.35;3.53;;;26.60;99.90;;;;;;5090973;27;20860;-68
2022/04/14 09:58:17;;;;;;;9.18;4.80;;;26.60;99.90;;;;;;5110009;27;20483;-68
2022/04/14 10:00:48;;;;;;;7.68;3.92;;;27.00;99.90;;;;;;5098948;27;20665;-68
2022/04/14 10:03:23;;;;;;;5.65;4.20;;;27.00;99.90;;;;;;5087408;27;20194;-68
2022/04/14 10:05:53;;;;;;;7.38;4.28;;;27.10;99.90;;;;;;5108780;27;20221;-68
2022/04/14 10:08:24;;;;;;;7.32;4.68;;;27.60;99.90;;;;;;5127598;27;20190;-68
2022/04/14 10:11:05;;;;;;;7.57;4.65;;;27.40;99.90;;;;;;5097814;27;20224;-68
2022/04/14 10:13:37;;;;;;;8.45;4.85;;;26.40;99.90;;;;;;5121043;27;20294;-67
2022/04/14 10:16:07;;;;;;;8.07;5.47;;;25.40;99.90;;;;;;5104208;27;20262;-68
2022/04/14 10:18:36;;;;;;;10.25;6.15;;;24.40;99.90;;;;;;5102340;27;20241;-68
2022/04/14 10:21:07;;;;;;;10.68;5.85;;;23.50;99.90;;;;;;5100119;28;20206;-67
2022/04/14 10:23:36;;;;;;;9.30;5.90;;;23.10;99.90;;;;;;5093328;27;20745;-67
2022/04/14 10:26:07;;;;;;;9.93;6.50;;;23.60;99.90;;;;;;5108923;27;20278;-67
2022/04/14 10:28:38;;;;;;;10.27;6.47;;;24.70;99.90;;;;;;5101640;27;20228;-67
2022/04/14 10:31:08;;;;;;;10.07;6.80;;;25.00;99.90;;;;;;5094260;28;20217;-68
2022/04/14 10:33:37;;;;;;;11.93;7.15;;;25.70;99.90;;;;;;5097901;27;20196;-67
2022/04/14 10:36:06;;;;;;;11.25;6.78;;;26.60;99.90;;;;;;5098330;27;20198;-67
2022/04/14 10:38:37;;;;;;;9.90;7.03;;;27.30;99.90;;;;;;5094332;27;20219;-67
2022/04/14 10:41:16;;;;;;;9.93;7.05;;;26.70;99.90;;;;;;5090304;27;20195;-67
2022/04/14 10:43:46;;;;;;;12.38;7.03;;;25.40;99.90;;;;;;5102819;27;20192;-67
2022/04/14 10:46:16;;;;;;;10.07;7.03;;;24.80;99.90;;;;;;5095367;27;20221;-67
2022/04/14 10:48:46;;;;;;;10.40;6.85;;;24.50;99.90;;;;;;5099660;28;20780;-67
2022/04/14 10:51:24;;;;;;;13.88;6.85;;;24.60;99.90;;;;;;5101749;28;20600;-67
2022/04/14 10:53:57;;;;;;;10.77;7.53;;;25.50;99.90;;;;;;5102811;27;20201;-67
2022/04/14 10:56:46;;;;;;;14.35;7.55;;;26.00;99.90;;;;;;5113112;27;20700;-67
2022/04/14 10:59:17;;;;;;;11.65;7.22;;;25.90;99.90;;;;;;5112639;27;20729;-66
2022/04/14 11:01:57;;;;;;;9.57;7.10;;;26.30;99.90;;;;;;5107881;27;20198;-66
2022/04/14 11:04:28;;;;;;;11.40;7.20;;;26.20;99.90;;;;;;5096530;27;20200;-66
2022/04/14 11:06:59;;;;;;;8.68;6.90;;;26.00;99.90;;;;;;5099722;28;20316;-69
2022/04/14 11:09:53;;;;;;;15.57;7.38;;;25.20;99.90;;;;;;5096369;27;20203;-69
2022/04/14 11:12:24;;;;;;;9.27;7.35;;;24.50;99.90;;;;;;5088960;27;20281;-70
2022/04/14 11:14:57;;;;;;;8.97;8.00;;;23.80;99.90;;;;;;5084972;28;20277;-70
2022/04/14 11:18:06;;;;;;;12.60;7.60;;;23.20;99.90;;;;;;5096171;27;20191;-70
2022/04/14 11:20:54;;;;;;;10.73;7.67;;;23.00;99.90;;;;;;5119541;27;20198;-70
2022/04/14 11:23:28;;;;;;;12.00;7.37;;;23.60;99.90;;;;;;5095267;27;20222;-70
2022/04/14 11:26:09;;;;;;;7.77;6.00;;;24.50;99.90;;;;;;5083419;28;20419;-70
2022/04/14 11:28:39;;;;;;;11.70;7.50;;;25.30;99.90;;;;;;5081904;28;20200;-70
2022/04/14 11:34:04;;;;;;;9.85;6.35;;;25.70;99.90;;;;;;5056559;28;20656;-71
2022/04/14 11:36:46;;;;;;;10.52;7.20;;;25.60;99.90;;;;;;5048516;28;20289;-70
2022/04/14 11:39:22;;;;;;;10.47;6.47;;;24.80;99.90;;;;;;5038102;28;20200;-70
2022/04/14 11:41:54;;;;;;;10.23;6.67;;;23.80;99.90;;;;;;5054785;28;20230;-69
2022/04/14 11:44:26;;;;;;;15.23;7.23;;;23.00;99.90;;;;;;5048464;28;20777;-70
2022/04/14 11:46:56;;;;;;;9.23;6.67;;;22.30;99.90;;;;;;5057128;28;20285;-70
2022/04/14 11:49:27;;;;;;;14.20;7.30;;;21.70;99.90;;;;;;5051892;28;20200;-69
2022/04/14 11:51:59;;;;;;;16.53;6.83;;;21.20;99.90;;;;;;5047767;28;20870;-69
2022/04/14 11:54:36;;;;;;;15.13;6.37;;;20.80;99.90;;;;;;5035157;28;20679;-70
2022/04/14 11:57:09;;;;;;;7.03;5.20;;;20.80;99.90;;;;;;5056436;28;20194;-70
2022/04/14 11:59:40;;;;;;;13.10;6.27;;;21.80;99.90;;;;;;5054086;28;20376;-70
2022/04/14 12:02:10;;;;;;;11.30;6.10;;;22.90;99.90;;;;;;5054111;28;20214;-69
2022/04/14 12:04:43;;;;;;;8.43;5.40;;;23.30;99.90;;;;;;5054511;28;20230;-69
2022/04/14 12:07:12;;;;;;;8.87;6.27;;;23.00;99.90;;;;;;5056102;28;20745;-70
2022/04/14 12:09:41;;;;;;;19.93;7.10;;;22.60;99.90;;;;;;5054942;28;20221;-69
2022/04/14 12:12:12;;;;;;;10.43;5.97;;;22.30;99.90;;;;;;5058243;28;20292;-69
2022/04/14 12:14:45;;;;;;;10.03;5.87;;;22.10;99.90;;;;;;5059763;28;20204;-69
2022/04/14 12:17:16;;;;;;;6.97;4.80;;;22.10;99.90;;;;;;5056521;28;20205;-69
2022/04/14 12:19:47;;;;;;;9.80;5.13;;;22.00;99.90;;;;;;5051188;28;20743;-69
2022/04/14 12:22:15;;;;;;;15.37;5.37;;;21.80;99.90;;;;;;5057083;28;20422;-69
2022/04/14 12:24:48;;;;;;;6.73;3.73;;;21.70;99.90;;;;;;5055125;28;20280;-69
2022/04/14 12:27:22;;;;;;;10.20;6.00;;;21.50;99.90;;;;;;5053244;28;20222;-69
2022/04/14 12:29:52;;;;;;;12.10;6.90;;;21.50;99.90;;;;;;5058161;28;20200;-69
2022/04/14 12:32:25;;;;;;;12.10;7.53;;;21.20;99.90;;;;;;5054124;28;20229;-70
2022/04/14 12:34:55;;;;;;;9.83;7.30;;;21.00;99.90;;;;;;5058040;28;20275;-69
2022/04/14 12:37:34;;;;;;;14.13;7.27;;;20.70;99.90;;;;;;5058667;28;20232;-70
2022/04/14 12:40:10;;;;;;;11.30;6.83;;;20.40;99.90;;;;;;5051882;28;20227;-70
2022/04/14 12:42:39;;;;;;;10.17;7.90;;;20.30;99.90;;;;;;5062207;28;20231;-70
2022/04/14 12:45:09;;;;;;;13.63;7.07;;;20.10;99.90;;;;;;5048385;28;20284;-70
2022/04/14 12:47:40;;;;;;;14.53;7.33;;;20.20;99.90;;;;;;5047455;28;20200;-70
2022/04/14 12:50:11;;;;;;;12.67;6.90;;;20.40;99.90;;;;;;5049117;28;20185;-70
2022/04/14 12:52:40;;;;;;;9.33;6.63;;;20.70;99.90;;;;;;5046510;28;20212;-70
2022/04/14 12:55:09;;;;;;;13.93;8.53;;;20.60;99.90;;;;;;5050082;28;20707;-70